createdAt,value
2023-12-12T00:01:25.133Z,9.20
2023-12-12T00:06:30.645Z,10.30
2023-12-12T00:11:33.704Z,9.00
2023-12-12T00:16:36.630Z,9.70
2023-12-12T00:21:39.666Z,9.90
2023-12-12T00:26:43.189Z,10.40
2023-12-12T00:31:46.112Z,11.10
2023-12-12T00:36:49.296Z,10.70
2023-12-12T00:41:53.911Z,11.50
2023-12-12T00:46:56.795Z,11.00
2023-12-12T00:51:59.953Z,11.80
2023-12-12T00:57:02.967Z,11.00
2023-12-12T01:02:05.931Z,11.00
2023-12-12T01:07:08.873Z,11.80
2023-12-12T01:12:11.968Z,10.60
2023-12-12T01:17:14.972Z,10.90
2023-12-12T01:22:17.904Z,11.20
2023-12-12T01:27:20.844Z,11.50
2023-12-12T01:32:23.841Z,11.60
2023-12-12T01:37:26.959Z,11.60
2023-12-12T01:42:29.908Z,11.00
2023-12-12T01:47:33.121Z,11.30
2023-12-12T01:52:37.122Z,11.30
2023-12-12T01:57:40.252Z,10.80
2023-12-12T02:02:43.197Z,11.20
2023-12-12T02:07:49.899Z,11.30
2023-12-12T02:12:53.420Z,11.70
2023-12-12T02:17:56.367Z,11.30
2023-12-12T02:22:59.317Z,10.90
2023-12-12T02:28:02.422Z,11.60
2023-12-12T02:33:06.001Z,11.80
2023-12-12T02:38:10.786Z,12.20
2023-12-12T02:43:13.707Z,12.80
2023-12-12T02:48:17.780Z,11.40
2023-12-12T02:53:20.628Z,11.90
2023-12-12T02:58:23.578Z,11.60
2023-12-12T03:03:26.546Z,12.20
2023-12-12T03:08:31.909Z,11.30
2023-12-12T03:13:34.958Z,11.00
2023-12-12T03:18:37.874Z,11.40
2023-12-12T03:23:40.684Z,10.80
2023-12-12T03:28:43.551Z,11.60
2023-12-12T03:33:46.497Z,11.20
2023-12-12T03:38:49.725Z,13.30
2023-12-12T03:43:52.689Z,15.70
2023-12-12T03:48:56.042Z,16.90
2023-12-12T03:53:59.674Z,16.80
2023-12-12T03:59:03.119Z,18.00
2023-12-12T04:04:06.012Z,15.70
2023-12-12T04:09:09.802Z,15.60
2023-12-12T04:14:12.670Z,15.50
2023-12-12T04:19:15.637Z,13.70
2023-12-12T04:24:18.641Z,11.90
2023-12-12T04:29:21.484Z,11.70
2023-12-12T04:34:24.387Z,12.50
2023-12-12T04:39:28.927Z,11.80
2023-12-12T04:44:31.959Z,13.20
2023-12-12T04:49:36.074Z,13.00
2023-12-12T04:54:38.978Z,12.40
2023-12-12T04:59:41.899Z,12.70
2023-12-12T05:04:44.765Z,15.80
2023-12-12T05:09:47.620Z,16.60
2023-12-12T05:14:50.566Z,15.60
2023-12-12T05:19:53.500Z,14.70
2023-12-12T05:24:57.912Z,14.30
2023-12-12T05:30:00.885Z,13.70
2023-12-12T05:35:04.318Z,13.30
2023-12-12T05:40:08.050Z,14.00
2023-12-12T05:45:12.037Z,15.70
2023-12-12T05:50:15.114Z,14.80
2023-12-12T05:55:18.174Z,16.00
2023-12-12T06:00:21.543Z,15.20
2023-12-12T06:05:24.790Z,14.50
2023-12-12T06:10:32.708Z,15.80
2023-12-12T06:15:39.978Z,14.30
2023-12-12T06:20:42.971Z,13.90
2023-12-12T06:25:45.946Z,13.90
2023-12-12T06:30:48.928Z,13.30
2023-12-12T06:35:51.856Z,14.20
2023-12-12T06:40:55.641Z,12.60
2023-12-12T06:45:58.663Z,13.00
2023-12-12T06:51:01.627Z,14.10
2023-12-12T06:56:05.003Z,14.00
2023-12-12T07:01:10.653Z,13.40
2023-12-12T07:06:13.925Z,15.00
2023-12-12T07:11:17.714Z,16.20
2023-12-12T07:16:22.640Z,15.20
2023-12-12T07:21:27.416Z,15.80
2023-12-12T07:26:33.295Z,15.00
2023-12-12T07:31:36.217Z,14.60
2023-12-12T07:36:42.994Z,14.10
2023-12-12T07:41:50.410Z,15.00
2023-12-12T07:46:53.723Z,14.90
2023-12-12T07:51:57.045Z,15.00
2023-12-12T07:57:03.597Z,14.20
2023-12-12T08:02:06.883Z,15.80
2023-12-12T08:07:10.699Z,19.80
2023-12-12T08:12:15.108Z,17.70
2023-12-12T08:17:18.066Z,19.10
2023-12-12T08:22:24.191Z,22.00
2023-12-12T08:27:29.310Z,22.30
2023-12-12T08:32:34.191Z,17.90
2023-12-12T08:37:40.636Z,17.50
2023-12-12T08:42:45.028Z,16.30
2023-12-12T08:47:50.745Z,14.60
2023-12-12T08:52:56.775Z,13.30
2023-12-12T08:58:00.987Z,15.10
2023-12-12T09:03:12.365Z,12.60
2023-12-12T09:08:15.830Z,13.10
2023-12-12T09:13:19.056Z,13.10
2023-12-12T09:18:22.425Z,15.10
2023-12-12T09:23:29.219Z,14.70
2023-12-12T09:28:33.561Z,16.00
2023-12-12T09:33:37.628Z,17.60
2023-12-12T09:38:41.116Z,18.30
2023-12-12T09:43:47.360Z,18.70
2023-12-12T09:48:52.089Z,17.30
2023-12-12T09:53:56.336Z,18.20
2023-12-12T09:59:01.800Z,14.60
2023-12-12T10:04:09.836Z,15.50
2023-12-12T10:09:13.025Z,16.40
2023-12-12T10:14:18.700Z,18.20
2023-12-12T10:19:26.494Z,16.80
2023-12-12T10:24:30.319Z,15.30
2023-12-12T10:29:33.838Z,17.40
2023-12-12T10:34:37.777Z,16.40
2023-12-12T10:39:45.507Z,16.40
2023-12-12T10:44:49.708Z,16.30
2023-12-12T10:49:57.440Z,17.20
2023-12-12T10:55:03.174Z,14.30
2023-12-12T11:00:16.975Z,17.80
2023-12-12T11:11:00.989Z,16.00
2023-12-12T11:16:09.416Z,15.00
2023-12-12T11:21:46.973Z,15.30
2023-12-12T11:27:02.749Z,17.00
2023-12-12T11:32:05.855Z,15.60
2023-12-12T11:37:10.249Z,14.50
2023-12-12T11:42:28.094Z,16.10
2023-12-12T11:47:33.323Z,16.10
2023-12-12T11:52:44.773Z,14.70
2023-12-12T11:57:48.810Z,15.30
2023-12-12T12:02:53.232Z,15.50
2023-12-12T12:07:57.618Z,15.80
2023-12-12T12:13:02.410Z,16.80
2023-12-12T12:18:05.982Z,14.50
2023-12-12T12:23:14.882Z,15.30
2023-12-12T12:28:18.290Z,14.70
2023-12-12T12:33:21.222Z,13.80
2023-12-12T12:38:29.418Z,15.60
2023-12-12T12:43:33.395Z,19.80
2023-12-12T12:48:43.042Z,19.20
2023-12-12T12:53:48.047Z,14.40
2023-12-12T12:58:51.251Z,15.20
2023-12-12T13:03:54.292Z,16.40
2023-12-12T13:08:58.478Z,16.00
2023-12-12T13:14:01.859Z,11.20
2023-12-12T13:24:40.001Z,13.40
2023-12-12T13:29:43.594Z,10.40
2023-12-12T13:34:51.651Z,10.90
2023-12-12T13:39:54.609Z,11.40
2023-12-12T13:44:57.651Z,11.60
2023-12-12T13:50:02.176Z,9.30
2023-12-12T13:55:10.982Z,9.80
2023-12-12T14:00:18.235Z,10.10
2023-12-12T14:10:24.809Z,8.40
2023-12-12T14:15:28.806Z,9.30
2023-12-12T14:20:31.685Z,10.30
2023-12-12T14:25:35.150Z,8.10
2023-12-12T14:30:40.677Z,8.20
2023-12-12T14:35:43.943Z,8.60
2023-12-12T14:40:52.099Z,6.80
2023-12-12T14:45:55.429Z,7.30
2023-12-12T14:50:58.451Z,8.10
2023-12-12T14:56:01.744Z,7.10
2023-12-12T15:01:04.937Z,7.00
2023-12-12T15:06:10.554Z,6.80
2023-12-12T15:11:13.663Z,6.40
2023-12-12T15:16:17.440Z,7.50
2023-12-12T15:21:22.611Z,9.00
2023-12-12T15:26:25.724Z,10.50
2023-12-12T15:31:30.589Z,8.50
2023-12-12T15:36:34.219Z,7.50
2023-12-12T15:41:37.297Z,6.70
2023-12-12T15:46:40.600Z,7.20
2023-12-12T15:51:43.822Z,8.40
2023-12-12T15:56:47.028Z,8.40
2023-12-12T16:01:52.429Z,7.70
2023-12-12T16:06:56.990Z,8.10
2023-12-12T16:12:00.170Z,6.70
2023-12-12T16:17:04.155Z,7.30
2023-12-12T16:22:09.358Z,6.70
2023-12-12T16:27:12.400Z,6.70
2023-12-12T16:32:15.946Z,5.00
2023-12-12T16:37:19.749Z,7.50
2023-12-12T16:42:22.696Z,6.70
2023-12-12T16:47:26.610Z,6.70
2023-12-12T16:52:30.101Z,8.60
2023-12-12T16:57:33.636Z,8.10
2023-12-12T17:02:38.086Z,8.20
2023-12-12T17:07:41.164Z,7.70
2023-12-12T17:12:44.698Z,7.70
2023-12-12T17:17:47.627Z,9.00
2023-12-12T17:22:50.660Z,8.50
2023-12-12T17:27:53.504Z,10.30
2023-12-12T17:32:56.474Z,9.50
2023-12-12T17:38:01.163Z,10.20
2023-12-12T17:43:04.693Z,9.00
2023-12-12T17:48:08.304Z,10.20
2023-12-12T17:53:15.566Z,9.40
2023-12-12T17:58:19.927Z,9.20
2023-12-12T18:03:24.298Z,8.60
2023-12-12T18:08:28.362Z,8.80
2023-12-12T18:13:31.708Z,9.10
2023-12-12T18:18:34.712Z,7.20
2023-12-12T18:23:37.698Z,8.30
2023-12-12T18:28:47.790Z,8.40
2023-12-12T18:33:51.299Z,9.40
2023-12-12T18:38:54.880Z,9.40
2023-12-12T18:43:58.637Z,9.10
2023-12-12T18:49:01.623Z,9.80
2023-12-12T18:54:06.661Z,9.30
2023-12-12T18:59:11.844Z,9.70
2023-12-12T19:04:14.921Z,10.10
2023-12-12T19:09:18.760Z,10.70
2023-12-12T19:14:21.645Z,14.60
2023-12-12T19:19:27.053Z,13.70
2023-12-12T19:24:31.460Z,12.70
2023-12-12T19:29:34.386Z,13.50
2023-12-12T19:34:37.965Z,11.30
2023-12-12T19:39:47.208Z,10.90
2023-12-12T19:44:50.089Z,11.10
2023-12-12T19:49:55.020Z,12.80
2023-12-12T19:54:59.474Z,12.70
2023-12-12T20:00:07.004Z,12.30
2023-12-12T20:05:10.885Z,12.40
2023-12-12T20:10:27.208Z,12.50
2023-12-12T20:15:32.634Z,11.90
2023-12-12T20:20:36.760Z,12.20
2023-12-12T20:25:43.855Z,14.60
2023-12-12T20:30:54.799Z,13.90
2023-12-12T20:36:11.330Z,13.90
2023-12-12T20:41:18.502Z,14.90
2023-12-12T20:46:33.343Z,13.80
2023-12-12T20:51:46.950Z,14.20
2023-12-12T21:02:34.964Z,13.70
2023-12-12T21:13:15.685Z,13.50
2023-12-12T21:18:27.177Z,12.30
2023-12-12T21:23:35.010Z,15.40
2023-12-12T21:28:41.261Z,16.20
2023-12-12T21:33:49.533Z,17.30
2023-12-12T21:39:08.903Z,14.80
2023-12-12T21:44:17.582Z,15.60
2023-12-12T21:49:31.579Z,12.90
2023-12-12T21:54:53.346Z,13.20
2023-12-12T21:59:59.663Z,13.50
2023-12-12T22:05:04.661Z,12.30
2023-12-12T22:10:14.710Z,11.50
2023-12-12T22:15:27.950Z,12.70
2023-12-12T22:20:43.410Z,12.00
2023-12-12T22:26:00.265Z,11.50
2023-12-12T22:31:17.158Z,11.80
2023-12-12T22:36:23.857Z,12.90
2023-12-12T22:41:27.479Z,13.00
2023-12-12T22:46:31.591Z,12.70
2023-12-12T22:51:35.396Z,14.90
2023-12-12T22:56:43.181Z,16.70
2023-12-12T23:01:49.664Z,15.80
2023-12-12T23:06:54.677Z,13.00
2023-12-12T23:17:13.560Z,14.60
2023-12-12T23:22:20.329Z,12.30
2023-12-12T23:27:25.012Z,12.60
2023-12-12T23:32:31.827Z,11.40
2023-12-12T23:37:37.310Z,11.80
2023-12-12T23:42:43.638Z,12.10
2023-12-12T23:47:48.611Z,13.10
2023-12-12T23:52:54.852Z,12.70
2023-12-12T23:58:01.384Z,13.20
